sensor_id;sensor_type;location;lat;lon;timestamp;P1;durP1;ratioP1;P2;durP2;ratioP2
12816;SDS011;6473;51.552;6.716;2023-10-13T00:00:47;20.20;;;15.07;;
12816;SDS011;6473;51.552;6.716;2023-10-13T00:03:13;20.48;;;14.88;;
12816;SDS011;6473;51.552;6.716;2023-10-13T00:05:44;22.10;;;15.48;;
12816;SDS011;6473;51.552;6.716;2023-10-13T00:08:11;22.08;;;14.27;;
12816;SDS011;6473;51.552;6.716;2023-10-13T00:10:38;17.40;;;13.95;;
12816;SDS011;6473;51.552;6.716;2023-10-13T00:13:07;18.85;;;14.57;;
12816;SDS011;6473;51.552;6.716;2023-10-13T00:15:40;18.23;;;13.40;;
12816;SDS011;6473;51.552;6.716;2023-10-13T00:18:17;20.42;;;14.40;;
12816;SDS011;6473;51.552;6.716;2023-10-13T00:20:44;18.35;;;13.93;;
12816;SDS011;6473;51.552;6.716;2023-10-13T00:23:14;16.45;;;13.48;;
12816;SDS011;6473;51.552;6.716;2023-10-13T00:25:46;19.40;;;14.27;;
12816;SDS011;6473;51.552;6.716;2023-10-13T00:28:23;17.65;;;13.80;;
12816;SDS011;6473;51.552;6.716;2023-10-13T00:30:52;17.60;;;14.00;;
12816;SDS011;6473;51.552;6.716;2023-10-13T00:33:30;20.48;;;14.20;;
12816;SDS011;6473;51.552;6.716;2023-10-13T00:35:57;22.00;;;14.38;;
12816;SDS011;6473;51.552;6.716;2023-10-13T00:38:24;16.60;;;13.93;;
12816;SDS011;6473;51.552;6.716;2023-10-13T00:40:52;17.08;;;12.55;;
12816;SDS011;6473;51.552;6.716;2023-10-13T00:43:20;19.27;;;13.45;;
12816;SDS011;6473;51.552;6.716;2023-10-13T00:46:05;16.73;;;13.07;;
12816;SDS011;6473;51.552;6.716;2023-10-13T00:48:34;17.30;;;12.50;;
12816;SDS011;6473;51.552;6.716;2023-10-13T00:51:07;15.65;;;11.98;;
12816;SDS011;6473;51.552;6.716;2023-10-13T00:53:43;19.52;;;12.52;;
12816;SDS011;6473;51.552;6.716;2023-10-13T00:56:12;14.73;;;11.73;;
12816;SDS011;6473;51.552;6.716;2023-10-13T00:58:47;21.52;;;12.55;;
12816;SDS011;6473;51.552;6.716;2023-10-13T01:01:17;15.88;;;12.43;;
12816;SDS011;6473;51.552;6.716;2023-10-13T01:03:44;14.18;;;11.52;;
12816;SDS011;6473;51.552;6.716;2023-10-13T01:06:14;17.52;;;12.70;;
12816;SDS011;6473;51.552;6.716;2023-10-13T01:08:42;16.13;;;12.63;;
12816;SDS011;6473;51.552;6.716;2023-10-13T01:11:11;14.23;;;12.00;;
12816;SDS011;6473;51.552;6.716;2023-10-13T01:13:38;15.32;;;11.55;;
12816;SDS011;6473;51.552;6.716;2023-10-13T01:16:06;18.73;;;12.15;;
12816;SDS011;6473;51.552;6.716;2023-10-13T01:18:34;17.90;;;12.23;;
12816;SDS011;6473;51.552;6.716;2023-10-13T01:21:12;14.65;;;12.05;;
12816;SDS011;6473;51.552;6.716;2023-10-13T01:23:42;16.67;;;12.02;;
12816;SDS011;6473;51.552;6.716;2023-10-13T01:26:10;13.75;;;12.02;;
12816;SDS011;6473;51.552;6.716;2023-10-13T01:28:38;16.08;;;11.43;;
12816;SDS011;6473;51.552;6.716;2023-10-13T01:31:11;16.48;;;12.23;;
12816;SDS011;6473;51.552;6.716;2023-10-13T01:33:38;17.13;;;13.13;;
12816;SDS011;6473;51.552;6.716;2023-10-13T01:36:05;20.40;;;12.10;;
12816;SDS011;6473;51.552;6.716;2023-10-13T01:38:35;13.90;;;11.80;;
12816;SDS011;6473;51.552;6.716;2023-10-13T01:41:07;16.73;;;12.60;;
12816;SDS011;6473;51.552;6.716;2023-10-13T01:43:34;17.90;;;13.00;;
12816;SDS011;6473;51.552;6.716;2023-10-13T01:46:01;16.17;;;13.13;;
12816;SDS011;6473;51.552;6.716;2023-10-13T01:48:28;16.23;;;12.80;;
12816;SDS011;6473;51.552;6.716;2023-10-13T01:50:58;15.48;;;12.65;;
12816;SDS011;6473;51.552;6.716;2023-10-13T01:53:27;20.13;;;12.60;;
12816;SDS011;6473;51.552;6.716;2023-10-13T01:55:54;15.18;;;12.60;;
12816;SDS011;6473;51.552;6.716;2023-10-13T01:58:23;17.77;;;13.93;;
12816;SDS011;6473;51.552;6.716;2023-10-13T02:00:54;15.57;;;13.18;;
12816;SDS011;6473;51.552;6.716;2023-10-13T02:03:21;22.35;;;12.02;;
12816;SDS011;6473;51.552;6.716;2023-10-13T02:05:49;16.90;;;13.43;;
12816;SDS011;6473;51.552;6.716;2023-10-13T02:08:18;16.25;;;13.52;;
12816;SDS011;6473;51.552;6.716;2023-10-13T02:10:49;18.33;;;13.52;;
12816;SDS011;6473;51.552;6.716;2023-10-13T02:13:15;15.88;;;13.00;;
12816;SDS011;6473;51.552;6.716;2023-10-13T02:15:44;19.73;;;12.82;;
12816;SDS011;6473;51.552;6.716;2023-10-13T02:18:13;18.20;;;13.27;;
12816;SDS011;6473;51.552;6.716;2023-10-13T02:20:46;18.75;;;12.98;;
12816;SDS011;6473;51.552;6.716;2023-10-13T02:23:19;17.48;;;12.93;;
12816;SDS011;6473;51.552;6.716;2023-10-13T02:25:46;16.70;;;11.85;;
12816;SDS011;6473;51.552;6.716;2023-10-13T02:28:12;14.00;;;11.93;;
12816;SDS011;6473;51.552;6.716;2023-10-13T02:30:40;16.50;;;12.60;;
12816;SDS011;6473;51.552;6.716;2023-10-13T02:33:11;13.82;;;11.65;;
12816;SDS011;6473;51.552;6.716;2023-10-13T02:35:38;16.00;;;12.68;;
12816;SDS011;6473;51.552;6.716;2023-10-13T02:38:16;15.02;;;12.05;;
12816;SDS011;6473;51.552;6.716;2023-10-13T02:40:52;20.38;;;13.30;;
12816;SDS011;6473;51.552;6.716;2023-10-13T02:43:19;19.48;;;12.57;;
12816;SDS011;6473;51.552;6.716;2023-10-13T02:45:54;15.15;;;11.75;;
12816;SDS011;6473;51.552;6.716;2023-10-13T02:48:25;15.40;;;12.43;;
12816;SDS011;6473;51.552;6.716;2023-10-13T02:50:56;16.30;;;12.40;;
12816;SDS011;6473;51.552;6.716;2023-10-13T02:53:27;17.13;;;12.55;;
12816;SDS011;6473;51.552;6.716;2023-10-13T02:55:55;15.13;;;11.98;;
12816;SDS011;6473;51.552;6.716;2023-10-13T02:58:23;15.82;;;12.10;;
12816;SDS011;6473;51.552;6.716;2023-10-13T03:01:04;17.00;;;12.98;;
12816;SDS011;6473;51.552;6.716;2023-10-13T03:03:43;15.32;;;12.70;;
12816;SDS011;6473;51.552;6.716;2023-10-13T03:06:13;19.67;;;12.50;;
12816;SDS011;6473;51.552;6.716;2023-10-13T03:08:40;13.40;;;11.35;;
12816;SDS011;6473;51.552;6.716;2023-10-13T03:11:08;18.02;;;12.55;;
12816;SDS011;6473;51.552;6.716;2023-10-13T03:13:35;16.70;;;12.85;;
12816;SDS011;6473;51.552;6.716;2023-10-13T03:16:10;17.13;;;12.82;;
12816;SDS011;6473;51.552;6.716;2023-10-13T03:18:37;21.52;;;13.50;;
12816;SDS011;6473;51.552;6.716;2023-10-13T03:21:04;14.32;;;12.27;;
12816;SDS011;6473;51.552;6.716;2023-10-13T03:23:32;18.38;;;13.32;;
12816;SDS011;6473;51.552;6.716;2023-10-13T03:26:10;15.52;;;12.98;;
12816;SDS011;6473;51.552;6.716;2023-10-13T03:28:37;18.17;;;13.63;;
12816;SDS011;6473;51.552;6.716;2023-10-13T03:31:06;17.13;;;13.65;;
12816;SDS011;6473;51.552;6.716;2023-10-13T03:33:32;16.77;;;13.35;;
12816;SDS011;6473;51.552;6.716;2023-10-13T03:35:59;20.02;;;14.52;;
12816;SDS011;6473;51.552;6.716;2023-10-13T03:38:33;18.75;;;14.38;;
12816;SDS011;6473;51.552;6.716;2023-10-13T03:41:04;20.35;;;14.25;;
12816;SDS011;6473;51.552;6.716;2023-10-13T03:43:43;19.73;;;13.85;;
12816;SDS011;6473;51.552;6.716;2023-10-13T03:46:17;19.52;;;14.48;;
12816;SDS011;6473;51.552;6.716;2023-10-13T03:48:46;19.95;;;14.35;;
12816;SDS011;6473;51.552;6.716;2023-10-13T03:51:20;20.38;;;14.68;;
12816;SDS011;6473;51.552;6.716;2023-10-13T03:53:50;22.17;;;14.70;;
12816;SDS011;6473;51.552;6.716;2023-10-13T03:56:18;20.30;;;15.43;;
12816;SDS011;6473;51.552;6.716;2023-10-13T03:58:52;19.77;;;14.18;;
12816;SDS011;6473;51.552;6.716;2023-10-13T04:01:23;27.92;;;15.13;;
12816;SDS011;6473;51.552;6.716;2023-10-13T04:03:57;19.27;;;14.43;;
12816;SDS011;6473;51.552;6.716;2023-10-13T04:06:29;17.65;;;14.00;;
12816;SDS011;6473;51.552;6.716;2023-10-13T04:09:25;20.35;;;13.95;;
12816;SDS011;6473;51.552;6.716;2023-10-13T04:12:09;17.50;;;13.98;;
12816;SDS011;6473;51.552;6.716;2023-10-13T04:15:08;21.15;;;14.80;;
12816;SDS011;6473;51.552;6.716;2023-10-13T04:17:43;21.85;;;16.13;;
12816;SDS011;6473;51.552;6.716;2023-10-13T04:20:11;21.80;;;16.23;;
12816;SDS011;6473;51.552;6.716;2023-10-13T04:22:52;20.77;;;15.85;;
12816;SDS011;6473;51.552;6.716;2023-10-13T04:25:38;22.52;;;16.00;;
12816;SDS011;6473;51.552;6.716;2023-10-13T04:28:17;21.80;;;15.52;;
12816;SDS011;6473;51.552;6.716;2023-10-13T04:30:58;20.35;;;15.57;;
12816;SDS011;6473;51.552;6.716;2023-10-13T04:33:36;22.70;;;16.58;;
12816;SDS011;6473;51.552;6.716;2023-10-13T04:36:10;19.48;;;15.10;;
12816;SDS011;6473;51.552;6.716;2023-10-13T04:38:43;23.38;;;15.77;;
12816;SDS011;6473;51.552;6.716;2023-10-13T04:41:24;21.75;;;15.35;;
12816;SDS011;6473;51.552;6.716;2023-10-13T04:43:57;20.48;;;15.15;;
12816;SDS011;6473;51.552;6.716;2023-10-13T04:46:29;20.90;;;15.85;;
12816;SDS011;6473;51.552;6.716;2023-10-13T04:49:19;21.90;;;14.00;;
12816;SDS011;6473;51.552;6.716;2023-10-13T04:51:54;21.83;;;14.82;;
12816;SDS011;6473;51.552;6.716;2023-10-13T04:54:39;18.33;;;13.68;;
12816;SDS011;6473;51.552;6.716;2023-10-13T04:57:16;20.67;;;13.50;;
12816;SDS011;6473;51.552;6.716;2023-10-13T04:59:48;20.33;;;13.93;;
12816;SDS011;6473;51.552;6.716;2023-10-13T05:02:34;17.98;;;13.90;;
12816;SDS011;6473;51.552;6.716;2023-10-13T05:05:42;15.55;;;13.35;;
12816;SDS011;6473;51.552;6.716;2023-10-13T05:08:31;16.75;;;13.52;;
12816;SDS011;6473;51.552;6.716;2023-10-13T05:11:12;19.10;;;12.70;;
12816;SDS011;6473;51.552;6.716;2023-10-13T05:13:58;17.00;;;13.15;;
12816;SDS011;6473;51.552;6.716;2023-10-13T05:16:42;14.85;;;12.20;;
12816;SDS011;6473;51.552;6.716;2023-10-13T05:19:27;20.50;;;13.43;;
12816;SDS011;6473;51.552;6.716;2023-10-13T05:22:11;17.60;;;12.90;;
12816;SDS011;6473;51.552;6.716;2023-10-13T05:24:55;18.10;;;11.75;;
12816;SDS011;6473;51.552;6.716;2023-10-13T05:27:40;21.95;;;13.00;;
12816;SDS011;6473;51.552;6.716;2023-10-13T05:30:26;17.85;;;12.85;;
12816;SDS011;6473;51.552;6.716;2023-10-13T05:33:10;18.60;;;13.40;;
12816;SDS011;6473;51.552;6.716;2023-10-13T05:35:54;21.67;;;13.55;;
12816;SDS011;6473;51.552;6.716;2023-10-13T05:38:39;20.10;;;13.52;;
12816;SDS011;6473;51.552;6.716;2023-10-13T05:41:23;19.05;;;12.98;;
12816;SDS011;6473;51.552;6.716;2023-10-13T05:44:08;17.75;;;12.82;;
12816;SDS011;6473;51.552;6.716;2023-10-13T05:46:54;14.98;;;12.43;;
12816;SDS011;6473;51.552;6.716;2023-10-13T05:50:09;17.67;;;12.80;;
12816;SDS011;6473;51.552;6.716;2023-10-13T05:52:38;17.00;;;13.30;;
12816;SDS011;6473;51.552;6.716;2023-10-13T05:55:24;18.50;;;13.57;;
12816;SDS011;6473;51.552;6.716;2023-10-13T05:58:10;19.92;;;14.00;;
12816;SDS011;6473;51.552;6.716;2023-10-13T06:00:54;16.10;;;12.60;;
12816;SDS011;6473;51.552;6.716;2023-10-13T06:03:41;16.08;;;11.55;;
12816;SDS011;6473;51.552;6.716;2023-10-13T06:06:25;17.88;;;12.30;;
12816;SDS011;6473;51.552;6.716;2023-10-13T06:09:09;15.30;;;11.50;;
12816;SDS011;6473;51.552;6.716;2023-10-13T06:11:54;19.60;;;11.90;;
12816;SDS011;6473;51.552;6.716;2023-10-13T06:14:38;15.98;;;11.52;;
12816;SDS011;6473;51.552;6.716;2023-10-13T06:17:34;13.85;;;11.85;;
12816;SDS011;6473;51.552;6.716;2023-10-13T06:20:20;13.38;;;11.27;;
12816;SDS011;6473;51.552;6.716;2023-10-13T06:23:13;16.40;;;11.32;;
12816;SDS011;6473;51.552;6.716;2023-10-13T06:25:58;16.55;;;11.18;;
12816;SDS011;6473;51.552;6.716;2023-10-13T06:28:42;14.05;;;10.52;;
12816;SDS011;6473;51.552;6.716;2023-10-13T06:31:12;14.75;;;11.07;;
12816;SDS011;6473;51.552;6.716;2023-10-13T06:33:46;13.80;;;10.73;;
12816;SDS011;6473;51.552;6.716;2023-10-13T06:36:15;14.88;;;10.50;;
12816;SDS011;6473;51.552;6.716;2023-10-13T06:38:43;13.98;;;9.93;;
12816;SDS011;6473;51.552;6.716;2023-10-13T06:41:10;14.00;;;10.23;;
12816;SDS011;6473;51.552;6.716;2023-10-13T06:43:45;14.90;;;10.07;;
12816;SDS011;6473;51.552;6.716;2023-10-13T06:46:24;16.45;;;10.52;;
12816;SDS011;6473;51.552;6.716;2023-10-13T06:48:59;17.58;;;9.70;;
12816;SDS011;6473;51.552;6.716;2023-10-13T06:51:29;21.00;;;9.90;;
12816;SDS011;6473;51.552;6.716;2023-10-13T06:54:03;17.65;;;9.07;;
12816;SDS011;6473;51.552;6.716;2023-10-13T06:56:36;14.07;;;8.20;;
12816;SDS011;6473;51.552;6.716;2023-10-13T06:59:05;16.38;;;8.80;;
12816;SDS011;6473;51.552;6.716;2023-10-13T07:01:32;13.13;;;8.85;;
12816;SDS011;6473;51.552;6.716;2023-10-13T07:04:04;11.88;;;8.35;;
12816;SDS011;6473;51.552;6.716;2023-10-13T07:06:39;12.60;;;8.20;;
12816;SDS011;6473;51.552;6.716;2023-10-13T07:09:09;14.88;;;7.85;;
12816;SDS011;6473;51.552;6.716;2023-10-13T07:11:53;14.80;;;8.32;;
12816;SDS011;6473;51.552;6.716;2023-10-13T07:14:25;12.85;;;7.35;;
12816;SDS011;6473;51.552;6.716;2023-10-13T07:16:55;12.85;;;7.82;;
12816;SDS011;6473;51.552;6.716;2023-10-13T07:19:24;13.30;;;7.63;;
12816;SDS011;6473;51.552;6.716;2023-10-13T07:21:54;11.00;;;7.20;;
12816;SDS011;6473;51.552;6.716;2023-10-13T07:24:24;15.35;;;7.97;;
12816;SDS011;6473;51.552;6.716;2023-10-13T07:26:56;12.35;;;7.25;;
12816;SDS011;6473;51.552;6.716;2023-10-13T07:29:28;13.40;;;7.00;;
12816;SDS011;6473;51.552;6.716;2023-10-13T07:31:55;10.40;;;6.90;;
12816;SDS011;6473;51.552;6.716;2023-10-13T07:34:23;14.52;;;7.32;;
12816;SDS011;6473;51.552;6.716;2023-10-13T07:36:52;12.73;;;7.47;;
12816;SDS011;6473;51.552;6.716;2023-10-13T07:39:24;13.85;;;7.45;;
12816;SDS011;6473;51.552;6.716;2023-10-13T07:41:51;10.75;;;6.72;;
12816;SDS011;6473;51.552;6.716;2023-10-13T07:44:21;11.82;;;7.07;;
12816;SDS011;6473;51.552;6.716;2023-10-13T07:46:53;14.30;;;6.63;;
12816;SDS011;6473;51.552;6.716;2023-10-13T07:49:28;12.52;;;7.28;;
12816;SDS011;6473;51.552;6.716;2023-10-13T07:52:03;10.38;;;6.90;;
12816;SDS011;6473;51.552;6.716;2023-10-13T07:54:50;12.90;;;6.72;;
12816;SDS011;6473;51.552;6.716;2023-10-13T07:57:25;11.48;;;6.63;;
12816;SDS011;6473;51.552;6.716;2023-10-13T07:59:54;12.05;;;6.03;;
12816;SDS011;6473;51.552;6.716;2023-10-13T08:02:36;10.02;;;6.50;;
12816;SDS011;6473;51.552;6.716;2023-10-13T08:05:23;10.35;;;7.00;;
12816;SDS011;6473;51.552;6.716;2023-10-13T08:07:56;11.90;;;7.20;;
12816;SDS011;6473;51.552;6.716;2023-10-13T08:10:22;12.70;;;7.05;;
12816;SDS011;6473;51.552;6.716;2023-10-13T08:12:55;9.27;;;6.65;;
12816;SDS011;6473;51.552;6.716;2023-10-13T08:15:24;9.15;;;6.25;;
12816;SDS011;6473;51.552;6.716;2023-10-13T08:17:57;11.52;;;6.97;;
12816;SDS011;6473;51.552;6.716;2023-10-13T08:20:28;9.50;;;6.78;;
12816;SDS011;6473;51.552;6.716;2023-10-13T08:23:04;11.65;;;6.68;;
12816;SDS011;6473;51.552;6.716;2023-10-13T08:25:39;11.90;;;6.05;;
12816;SDS011;6473;51.552;6.716;2023-10-13T08:28:20;9.02;;;6.53;;
12816;SDS011;6473;51.552;6.716;2023-10-13T08:31:05;12.48;;;5.57;;
12816;SDS011;6473;51.552;6.716;2023-10-13T08:33:46;10.10;;;5.55;;
12816;SDS011;6473;51.552;6.716;2023-10-13T08:36:14;13.05;;;4.85;;
12816;SDS011;6473;51.552;6.716;2023-10-13T08:38:57;10.27;;;5.32;;
12816;SDS011;6473;51.552;6.716;2023-10-13T08:41:41;10.02;;;5.40;;
12816;SDS011;6473;51.552;6.716;2023-10-13T08:44:19;9.07;;;5.60;;
12816;SDS011;6473;51.552;6.716;2023-10-13T08:46:58;11.13;;;5.38;;
12816;SDS011;6473;51.552;6.716;2023-10-13T08:49:32;9.82;;;5.50;;
12816;SDS011;6473;51.552;6.716;2023-10-13T08:52:07;11.65;;;5.63;;
12816;SDS011;6473;51.552;6.716;2023-10-13T08:54:52;10.05;;;4.43;;
12816;SDS011;6473;51.552;6.716;2023-10-13T08:57:38;9.90;;;4.68;;
12816;SDS011;6473;51.552;6.716;2023-10-13T09:00:06;9.27;;;4.82;;
12816;SDS011;6473;51.552;6.716;2023-10-13T09:02:58;8.50;;;4.03;;
12816;SDS011;6473;51.552;6.716;2023-10-13T09:05:42;8.65;;;4.25;;
12816;SDS011;6473;51.552;6.716;2023-10-13T09:08:26;6.63;;;4.30;;
12816;SDS011;6473;51.552;6.716;2023-10-13T09:11:02;9.02;;;4.65;;
12816;SDS011;6473;51.552;6.716;2023-10-13T09:13:37;8.35;;;4.65;;
12816;SDS011;6473;51.552;6.716;2023-10-13T09:16:11;8.70;;;4.55;;
12816;SDS011;6473;51.552;6.716;2023-10-13T09:19:08;9.25;;;4.63;;
12816;SDS011;6473;51.552;6.716;2023-10-13T09:21:39;8.73;;;4.30;;
12816;SDS011;6473;51.552;6.716;2023-10-13T09:24:19;7.97;;;4.40;;
12816;SDS011;6473;51.552;6.716;2023-10-13T09:26:57;8.45;;;4.10;;
12816;SDS011;6473;51.552;6.716;2023-10-13T09:29:27;6.45;;;4.20;;
12816;SDS011;6473;51.552;6.716;2023-10-13T09:31:58;8.35;;;3.78;;
12816;SDS011;6473;51.552;6.716;2023-10-13T09:34:27;9.65;;;4.18;;
12816;SDS011;6473;51.552;6.716;2023-10-13T09:36:56;6.57;;;4.05;;
12816;SDS011;6473;51.552;6.716;2023-10-13T09:39:24;10.65;;;4.07;;
12816;SDS011;6473;51.552;6.716;2023-10-13T09:42:10;8.57;;;4.18;;
12816;SDS011;6473;51.552;6.716;2023-10-13T09:44:37;10.02;;;4.32;;
12816;SDS011;6473;51.552;6.716;2023-10-13T09:47:07;4.93;;;3.22;;
12816;SDS011;6473;51.552;6.716;2023-10-13T09:49:43;11.70;;;4.13;;
12816;SDS011;6473;51.552;6.716;2023-10-13T09:52:14;6.10;;;3.72;;
12816;SDS011;6473;51.552;6.716;2023-10-13T09:54:49;9.20;;;4.00;;
12816;SDS011;6473;51.552;6.716;2023-10-13T09:57:28;9.65;;;3.85;;
12816;SDS011;6473;51.552;6.716;2023-10-13T10:00:02;9.35;;;4.07;;
12816;SDS011;6473;51.552;6.716;2023-10-13T10:02:53;7.45;;;4.07;;
12816;SDS011;6473;51.552;6.716;2023-10-13T10:05:24;6.35;;;3.90;;
12816;SDS011;6473;51.552;6.716;2023-10-13T10:07:55;8.35;;;4.28;;
12816;SDS011;6473;51.552;6.716;2023-10-13T10:10:21;7.93;;;4.38;;
12816;SDS011;6473;51.552;6.716;2023-10-13T10:12:52;8.80;;;4.60;;
12816;SDS011;6473;51.552;6.716;2023-10-13T10:15:26;6.53;;;3.80;;
12816;SDS011;6473;51.552;6.716;2023-10-13T10:17:59;7.43;;;4.32;;
12816;SDS011;6473;51.552;6.716;2023-10-13T10:20:30;7.78;;;4.43;;
12816;SDS011;6473;51.552;6.716;2023-10-13T10:23:07;6.43;;;4.18;;
12816;SDS011;6473;51.552;6.716;2023-10-13T10:25:38;7.07;;;4.53;;
12816;SDS011;6473;51.552;6.716;2023-10-13T10:28:11;8.80;;;4.50;;
12816;SDS011;6473;51.552;6.716;2023-10-13T10:30:41;11.75;;;4.00;;
12816;SDS011;6473;51.552;6.716;2023-10-13T10:33:09;4.53;;;4.05;;
12816;SDS011;6473;51.552;6.716;2023-10-13T10:35:39;6.97;;;4.45;;
12816;SDS011;6473;51.552;6.716;2023-10-13T10:38:08;6.32;;;4.40;;
12816;SDS011;6473;51.552;6.716;2023-10-13T10:40:49;9.52;;;4.88;;
12816;SDS011;6473;51.552;6.716;2023-10-13T10:43:24;7.38;;;4.40;;
12816;SDS011;6473;51.552;6.716;2023-10-13T10:45:54;6.80;;;4.70;;
12816;SDS011;6473;51.552;6.716;2023-10-13T10:48:25;6.75;;;4.55;;
12816;SDS011;6473;51.552;6.716;2023-10-13T10:50:58;10.20;;;4.50;;
12816;SDS011;6473;51.552;6.716;2023-10-13T10:53:33;7.32;;;4.85;;
12816;SDS011;6473;51.552;6.716;2023-10-13T10:56:08;11.15;;;4.93;;
12816;SDS011;6473;51.552;6.716;2023-10-13T10:58:47;8.43;;;4.72;;
12816;SDS011;6473;51.552;6.716;2023-10-13T11:01:20;7.70;;;5.18;;
12816;SDS011;6473;51.552;6.716;2023-10-13T11:03:53;6.38;;;4.72;;
12816;SDS011;6473;51.552;6.716;2023-10-13T11:06:22;7.00;;;4.85;;
12816;SDS011;6473;51.552;6.716;2023-10-13T11:09:00;7.40;;;4.90;;
12816;SDS011;6473;51.552;6.716;2023-10-13T11:11:29;6.00;;;4.75;;
12816;SDS011;6473;51.552;6.716;2023-10-13T11:14:02;5.85;;;4.97;;
12816;SDS011;6473;51.552;6.716;2023-10-13T11:16:48;9.88;;;5.28;;
12816;SDS011;6473;51.552;6.716;2023-10-13T11:19:18;10.43;;;5.30;;
12816;SDS011;6473;51.552;6.716;2023-10-13T11:21:53;9.38;;;5.20;;
12816;SDS011;6473;51.552;6.716;2023-10-13T11:24:21;12.35;;;5.20;;
12816;SDS011;6473;51.552;6.716;2023-10-13T11:26:48;9.10;;;5.05;;
12816;SDS011;6473;51.552;6.716;2023-10-13T11:29:17;11.10;;;5.90;;
12816;SDS011;6473;51.552;6.716;2023-10-13T11:31:48;6.18;;;4.65;;
12816;SDS011;6473;51.552;6.716;2023-10-13T11:34:23;7.35;;;4.97;;
12816;SDS011;6473;51.552;6.716;2023-10-13T11:36:50;8.57;;;4.78;;
12816;SDS011;6473;51.552;6.716;2023-10-13T11:39:17;10.98;;;5.35;;
12816;SDS011;6473;51.552;6.716;2023-10-13T11:41:49;8.80;;;5.20;;
12816;SDS011;6473;51.552;6.716;2023-10-13T11:44:21;9.80;;;4.65;;
12816;SDS011;6473;51.552;6.716;2023-10-13T11:46:56;7.47;;;4.72;;
12816;SDS011;6473;51.552;6.716;2023-10-13T11:49:34;9.50;;;5.22;;
12816;SDS011;6473;51.552;6.716;2023-10-13T11:52:02;7.03;;;4.82;;
12816;SDS011;6473;51.552;6.716;2023-10-13T11:54:41;10.10;;;5.40;;
12816;SDS011;6473;51.552;6.716;2023-10-13T11:57:08;17.15;;;5.28;;
12816;SDS011;6473;51.552;6.716;2023-10-13T11:59:36;9.30;;;4.50;;
12816;SDS011;6473;51.552;6.716;2023-10-13T12:02:13;8.18;;;5.25;;
12816;SDS011;6473;51.552;6.716;2023-10-13T12:04:57;9.57;;;4.65;;
12816;SDS011;6473;51.552;6.716;2023-10-13T12:07:24;8.40;;;4.40;;
12816;SDS011;6473;51.552;6.716;2023-10-13T12:10:06;8.77;;;4.75;;
12816;SDS011;6473;51.552;6.716;2023-10-13T12:12:40;7.85;;;4.82;;
12816;SDS011;6473;51.552;6.716;2023-10-13T12:17:52;7.78;;;4.30;;
12816;SDS011;6473;51.552;6.716;2023-10-13T12:20:23;11.75;;;5.13;;
12816;SDS011;6473;51.552;6.716;2023-10-13T12:22:58;11.80;;;4.32;;
12816;SDS011;6473;51.552;6.716;2023-10-13T12:25:36;11.25;;;4.82;;
12816;SDS011;6473;51.552;6.716;2023-10-13T12:28:20;10.15;;;4.57;;
12816;SDS011;6473;51.552;6.716;2023-10-13T12:30:51;9.50;;;4.63;;
12816;SDS011;6473;51.552;6.716;2023-10-13T12:33:25;10.75;;;4.85;;
12816;SDS011;6473;51.552;6.716;2023-10-13T12:36:02;11.02;;;4.28;;
12816;SDS011;6473;51.552;6.716;2023-10-13T12:38:31;15.27;;;4.80;;
12816;SDS011;6473;51.552;6.716;2023-10-13T12:41:47;9.48;;;4.85;;
12816;SDS011;6473;51.552;6.716;2023-10-13T12:44:31;5.78;;;3.75;;
12816;SDS011;6473;51.552;6.716;2023-10-13T12:47:25;11.25;;;4.82;;
12816;SDS011;6473;51.552;6.716;2023-10-13T12:50:09;11.50;;;4.22;;
12816;SDS011;6473;51.552;6.716;2023-10-13T12:52:51;9.98;;;4.70;;
12816;SDS011;6473;51.552;6.716;2023-10-13T12:55:18;9.35;;;4.50;;
12816;SDS011;6473;51.552;6.716;2023-10-13T12:57:51;11.45;;;4.60;;
12816;SDS011;6473;51.552;6.716;2023-10-13T13:00:18;8.77;;;4.85;;
12816;SDS011;6473;51.552;6.716;2023-10-13T13:02:51;13.55;;;4.40;;
12816;SDS011;6473;51.552;6.716;2023-10-13T13:05:21;9.32;;;4.35;;
12816;SDS011;6473;51.552;6.716;2023-10-13T13:07:54;11.57;;;4.90;;
12816;SDS011;6473;51.552;6.716;2023-10-13T13:10:21;6.47;;;4.88;;
12816;SDS011;6473;51.552;6.716;2023-10-13T13:13:02;12.07;;;5.07;;
12816;SDS011;6473;51.552;6.716;2023-10-13T13:15:29;8.25;;;4.43;;
12816;SDS011;6473;51.552;6.716;2023-10-13T13:17:56;14.23;;;4.88;;
12816;SDS011;6473;51.552;6.716;2023-10-13T13:20:23;16.00;;;5.15;;
12816;SDS011;6473;51.552;6.716;2023-10-13T13:22:55;9.82;;;4.60;;
12816;SDS011;6473;51.552;6.716;2023-10-13T13:25:28;10.88;;;4.50;;
12816;SDS011;6473;51.552;6.716;2023-10-13T13:27:58;9.50;;;4.80;;
12816;SDS011;6473;51.552;6.716;2023-10-13T13:30:31;12.18;;;4.50;;
12816;SDS011;6473;51.552;6.716;2023-10-13T13:33:00;9.80;;;4.43;;
12816;SDS011;6473;51.552;6.716;2023-10-13T13:35:35;14.70;;;4.97;;
12816;SDS011;6473;51.552;6.716;2023-10-13T13:38:02;12.65;;;5.07;;
12816;SDS011;6473;51.552;6.716;2023-10-13T13:40:36;9.73;;;4.47;;
12816;SDS011;6473;51.552;6.716;2023-10-13T13:43:04;10.55;;;5.25;;
12816;SDS011;6473;51.552;6.716;2023-10-13T13:45:33;9.70;;;3.92;;
12816;SDS011;6473;51.552;6.716;2023-10-13T13:48:06;7.95;;;4.35;;
12816;SDS011;6473;51.552;6.716;2023-10-13T13:50:40;14.05;;;4.57;;
12816;SDS011;6473;51.552;6.716;2023-10-13T13:53:09;11.02;;;4.45;;
12816;SDS011;6473;51.552;6.716;2023-10-13T13:55:36;10.25;;;4.70;;
12816;SDS011;6473;51.552;6.716;2023-10-13T13:58:05;7.63;;;4.30;;
12816;SDS011;6473;51.552;6.716;2023-10-13T14:00:36;9.38;;;3.97;;
12816;SDS011;6473;51.552;6.716;2023-10-13T14:03:05;7.35;;;4.47;;
12816;SDS011;6473;51.552;6.716;2023-10-13T14:05:40;10.20;;;4.30;;
12816;SDS011;6473;51.552;6.716;2023-10-13T14:08:08;10.98;;;4.30;;
12816;SDS011;6473;51.552;6.716;2023-10-13T14:10:37;12.77;;;4.45;;
12816;SDS011;6473;51.552;6.716;2023-10-13T14:13:18;6.95;;;4.47;;
12816;SDS011;6473;51.552;6.716;2023-10-13T14:15:49;9.98;;;4.25;;
12816;SDS011;6473;51.552;6.716;2023-10-13T14:18:21;9.30;;;3.80;;
12816;SDS011;6473;51.552;6.716;2023-10-13T14:20:55;11.32;;;4.32;;
12816;SDS011;6473;51.552;6.716;2023-10-13T14:23:29;6.13;;;4.28;;
12816;SDS011;6473;51.552;6.716;2023-10-13T14:25:56;13.32;;;5.35;;
12816;SDS011;6473;51.552;6.716;2023-10-13T14:28:23;9.20;;;4.50;;
12816;SDS011;6473;51.552;6.716;2023-10-13T14:30:59;8.48;;;4.22;;
12816;SDS011;6473;51.552;6.716;2023-10-13T14:33:25;9.27;;;4.95;;
12816;SDS011;6473;51.552;6.716;2023-10-13T14:35:52;10.23;;;4.35;;
12816;SDS011;6473;51.552;6.716;2023-10-13T14:38:19;11.80;;;4.55;;
12816;SDS011;6473;51.552;6.716;2023-10-13T14:40:46;11.02;;;4.43;;
12816;SDS011;6473;51.552;6.716;2023-10-13T14:43:13;9.73;;;4.10;;
12816;SDS011;6473;51.552;6.716;2023-10-13T14:45:40;7.85;;;4.00;;
12816;SDS011;6473;51.552;6.716;2023-10-13T14:48:08;10.50;;;4.18;;
12816;SDS011;6473;51.552;6.716;2023-10-13T14:50:39;8.00;;;4.00;;
12816;SDS011;6473;51.552;6.716;2023-10-13T14:53:08;8.95;;;3.92;;
12816;SDS011;6473;51.552;6.716;2023-10-13T14:55:34;8.98;;;3.95;;
12816;SDS011;6473;51.552;6.716;2023-10-13T14:58:04;10.00;;;3.80;;
12816;SDS011;6473;51.552;6.716;2023-10-13T15:00:33;9.75;;;4.85;;
12816;SDS011;6473;51.552;6.716;2023-10-13T15:03:00;13.50;;;4.05;;
12816;SDS011;6473;51.552;6.716;2023-10-13T15:05:29;6.30;;;3.88;;
12816;SDS011;6473;51.552;6.716;2023-10-13T15:07:58;7.00;;;3.95;;
12816;SDS011;6473;51.552;6.716;2023-10-13T15:10:25;6.60;;;4.40;;
12816;SDS011;6473;51.552;6.716;2023-10-13T15:12:52;8.43;;;4.00;;
12816;SDS011;6473;51.552;6.716;2023-10-13T15:15:19;9.30;;;4.45;;
12816;SDS011;6473;51.552;6.716;2023-10-13T15:17:46;10.70;;;3.72;;
12816;SDS011;6473;51.552;6.716;2023-10-13T15:20:13;8.70;;;4.30;;
12816;SDS011;6473;51.552;6.716;2023-10-13T15:22:43;8.13;;;4.43;;
12816;SDS011;6473;51.552;6.716;2023-10-13T15:25:12;8.25;;;4.13;;
12816;SDS011;6473;51.552;6.716;2023-10-13T15:27:57;7.30;;;4.07;;